Time;durP1;ratioP1;P1;durP2;ratioP2;P2;SDS_P1;SDS_P2;PMS_P1;PMS_P2;Temp;Humidity;BMP_temperature;BMP_pressure;BME280_temperature;BME280_humidity;BME280_pressure;Samples;Min_cycle;Max_cycle;Signal;HPM_P1;HPM_P2
2021/11/08 00:00:49;;;;;;;46.30;11.77;;;;;;;;;;4955127;28;20390;-75
2021/11/08 00:03:19;;;;;;;27.52;9.05;;;;;;;;;;4938681;29;20047;-74
2021/11/08 00:05:47;;;;;;;38.50;10.32;;;;;;;;;;4938638;29;20043;-75
2021/11/08 00:08:17;;;;;;;26.45;10.35;;;;;;;;;;4939029;29;20420;-76
2021/11/08 00:10:47;;;;;;;24.58;9.57;;;;;;;;;;4938774;29;20397;-75
2021/11/08 00:13:15;;;;;;;26.90;9.25;;;;;;;;;;4955256;29;20127;-76
2021/11/08 00:20:45;;;;;;;31.45;9.88;;;;;;;;;;4938314;29;20061;-75
2021/11/08 00:23:13;;;;;;;27.90;9.52;;;;;;;;;;4938321;29;20057;-75
2021/11/08 00:25:43;;;;;;;27.02;10.10;;;;;;;;;;4938281;29;20051;-79
2021/11/08 00:28:14;;;;;;;26.15;9.07;;;;;;;;;;4938346;29;20075;-76
2021/11/08 00:30:44;;;;;;;26.98;8.80;;;;;;;;;;4938368;29;20062;-77
2021/11/08 00:33:15;;;;;;;30.83;9.98;;;;;;;;;;4922810;29;20138;-75
2021/11/08 00:35:50;;;;;;;28.60;8.80;;;;;;;;;;4938936;29;20055;-77
2021/11/08 00:38:19;;;;;;;32.10;9.07;;;;;;;;;;4953857;29;20445;-76
2021/11/08 00:40:48;;;;;;;27.35;9.35;;;;;;;;;;4919237;29;20057;-80
2021/11/08 00:43:18;;;;;;;28.60;10.05;;;;;;;;;;4934020;29;20052;-75
2021/11/08 00:45:45;;;;;;;27.63;8.88;;;;;;;;;;4918361;29;20445;-79
2021/11/08 00:48:19;;;;;;;34.20;8.75;;;;;;;;;;4919229;29;20497;-76
2021/11/08 00:50:51;;;;;;;35.60;9.63;;;;;;;;;;4936322;29;20039;-75
2021/11/08 00:53:21;;;;;;;25.77;9.52;;;;;;;;;;4936280;29;20122;-74
2021/11/08 00:55:52;;;;;;;28.75;9.25;;;;;;;;;;4902911;29;20082;-78
2021/11/08 00:58:27;;;;;;;25.67;9.27;;;;;;;;;;4935559;29;20078;-79
2021/11/08 01:00:58;;;;;;;26.35;9.02;;;;;;;;;;4919075;29;20493;-75
2021/11/08 01:03:28;;;;;;;24.42;8.75;;;;;;;;;;4936163;29;20052;-79
2021/11/08 01:05:56;;;;;;;32.47;9.73;;;;;;;;;;4918849;29;20466;-76
2021/11/08 01:08:32;;;;;;;23.50;9.25;;;;;;;;;;4935981;29;20043;-75
2021/11/08 01:11:00;;;;;;;29.38;9.20;;;;;;;;;;4935788;29;20067;-76
2021/11/08 01:13:28;;;;;;;34.17;9.82;;;;;;;;;;4935768;29;20043;-79
2021/11/08 01:15:57;;;;;;;29.60;10.15;;;;;;;;;;4935457;29;20040;-75
2021/11/08 01:18:26;;;;;;;29.80;10.27;;;;;;;;;;4919084;29;20115;-75
2021/11/08 01:20:54;;;;;;;29.52;10.27;;;;;;;;;;4935513;29;20051;-75
2021/11/08 01:23:27;;;;;;;26.95;11.15;;;;;;;;;;4918547;29;20143;-75
2021/11/08 01:26:19;;;;;;;25.55;10.27;;;;;;;;;;4935554;29;20127;-77
2021/11/08 01:28:48;;;;;;;31.05;9.55;;;;;;;;;;4935806;29;20044;-74
2021/11/08 01:31:18;;;;;;;27.67;11.02;;;;;;;;;;4935774;29;20042;-74
2021/11/08 01:33:50;;;;;;;26.35;9.15;;;;;;;;;;4918703;29;20048;-75
2021/11/08 01:36:54;;;;;;;37.40;9.52;;;;;;;;;;4902998;29;20054;-80
2021/11/08 01:39:18;;;;;;;23.98;9.70;;;;;;;;;;4934123;29;20151;-79
2021/11/08 01:41:46;;;;;;;25.52;9.52;;;;;;;;;;4917829;29;20059;-75
2021/11/08 01:44:15;;;;;;;24.45;9.52;;;;;;;;;;4902619;29;20139;-74
2021/11/08 01:46:43;;;;;;;24.02;9.57;;;;;;;;;;4918738;29;20058;-75
2021/11/08 01:49:11;;;;;;;27.33;10.25;;;;;;;;;;4935550;29;20050;-75
2021/11/08 01:51:39;;;;;;;21.00;9.23;;;;;;;;;;4935327;29;20059;-76
2021/11/08 01:54:08;;;;;;;31.02;10.07;;;;;;;;;;4935453;29;20417;-77
2021/11/08 01:56:37;;;;;;;30.02;10.52;;;;;;;;;;4918080;29;20457;-75
2021/11/08 01:59:06;;;;;;;26.55;10.57;;;;;;;;;;4918256;29;20420;-80
2021/11/08 02:01:37;;;;;;;29.33;11.32;;;;;;;;;;4935204;29;20095;-79
2021/11/08 02:04:05;;;;;;;31.00;10.57;;;;;;;;;;4918318;29;20490;-77
2021/11/08 02:06:33;;;;;;;28.80;9.95;;;;;;;;;;4935040;29;20130;-75
2021/11/08 02:09:00;;;;;;;34.88;10.70;;;;;;;;;;4935252;29;20063;-79
2021/11/08 02:11:28;;;;;;;29.35;10.15;;;;;;;;;;4935617;29;20119;-77
2021/11/08 02:14:00;;;;;;;31.13;10.30;;;;;;;;;;4935559;29;20098;-75
2021/11/08 02:16:27;;;;;;;27.52;9.93;;;;;;;;;;4902895;29;20049;-75
2021/11/08 02:18:58;;;;;;;22.98;9.63;;;;;;;;;;4934770;29;20044;-75
2021/11/08 02:21:26;;;;;;;23.83;9.52;;;;;;;;;;4934969;29;20048;-75
2021/11/08 02:23:55;;;;;;;30.50;9.38;;;;;;;;;;4937170;29;20044;-76
2021/11/08 02:26:23;;;;;;;23.70;9.75;;;;;;;;;;4938605;29;20068;-76
2021/11/08 02:28:52;;;;;;;24.45;9.57;;;;;;;;;;4921980;29;20039;-77
2021/11/08 02:31:22;;;;;;;23.30;9.68;;;;;;;;;;4938638;29;20050;-75
2021/11/08 02:33:54;;;;;;;32.03;10.40;;;;;;;;;;4921416;29;20126;-79
2021/11/08 02:36:22;;;;;;;30.25;10.10;;;;;;;;;;4921377;29;20046;-75
2021/11/08 02:38:52;;;;;;;26.23;9.73;;;;;;;;;;4937743;29;20035;-74
2021/11/08 02:41:20;;;;;;;18.98;9.27;;;;;;;;;;4905405;29;20079;-76
2021/11/08 02:43:48;;;;;;;34.30;10.98;;;;;;;;;;4921426;29;20058;-75
2021/11/08 02:46:17;;;;;;;27.48;9.43;;;;;;;;;;4937914;29;20059;-75
2021/11/08 02:48:46;;;;;;;20.65;9.60;;;;;;;;;;4937916;29;20135;-75
2021/11/08 02:53:47;;;;;;;26.17;11.18;;;;;;;;;;4937778;29;20553;-75
2021/11/08 02:56:15;;;;;;;38.70;11.32;;;;;;;;;;4905671;29;20413;-79
2021/11/08 02:58:44;;;;;;;31.02;10.68;;;;;;;;;;4937852;29;20380;-75
2021/11/08 03:01:18;;;;;;;34.63;11.52;;;;;;;;;;4937909;29;20039;-77
2021/11/08 03:03:56;;;;;;;35.13;11.27;;;;;;;;;;4921092;29;20044;-76
2021/11/08 03:08:54;;;;;;;27.60;10.88;;;;;;;;;;4920356;29;20524;-75
2021/11/08 03:11:23;;;;;;;32.90;11.27;;;;;;;;;;4921171;29;20079;-75
2021/11/08 03:14:06;;;;;;;22.40;10.20;;;;;;;;;;4920992;29;20067;-75
2021/11/08 03:19:13;;;;;;;32.55;11.38;;;;;;;;;;4937463;29;20054;-75
2021/11/08 03:21:41;;;;;;;36.55;11.13;;;;;;;;;;4937399;29;20054;-75
2021/11/08 03:24:13;;;;;;;33.58;10.60;;;;;;;;;;4937488;29;20107;-76
2021/11/08 03:26:47;;;;;;;32.90;12.02;;;;;;;;;;4937848;29;20036;-76
2021/11/08 03:29:16;;;;;;;30.02;10.38;;;;;;;;;;4904986;29;20143;-76
2021/11/08 03:31:47;;;;;;;35.58;11.35;;;;;;;;;;4937840;29;20043;-76
2021/11/08 03:34:15;;;;;;;30.17;11.30;;;;;;;;;;4936417;29;20050;-79
2021/11/08 03:36:49;;;;;;;25.75;9.77;;;;;;;;;;4919812;29;20062;-79
2021/11/08 03:39:19;;;;;;;31.25;10.63;;;;;;;;;;4920371;29;20413;-77
2021/11/08 03:41:47;;;;;;;24.17;10.45;;;;;;;;;;4937390;29;20091;-79
2021/11/08 03:44:15;;;;;;;32.42;10.25;;;;;;;;;;4937076;29;20054;-79
2021/11/08 03:46:42;;;;;;;25.38;10.40;;;;;;;;;;4937491;29;20246;-78
2021/11/08 03:49:10;;;;;;;28.23;9.50;;;;;;;;;;4937369;29;20134;-75
2021/11/08 03:51:38;;;;;;;25.50;10.45;;;;;;;;;;4919813;29;20046;-79
2021/11/08 03:54:06;;;;;;;29.27;10.60;;;;;;;;;;4920232;29;20047;-75
2021/11/08 03:56:37;;;;;;;27.70;10.32;;;;;;;;;;4937166;29;20493;-79
2021/11/08 03:59:05;;;;;;;30.08;10.52;;;;;;;;;;4936689;29;20485;-74
2021/11/08 04:01:38;;;;;;;30.00;9.27;;;;;;;;;;4937055;29;20440;-79
2021/11/08 04:04:06;;;;;;;30.40;9.90;;;;;;;;;;4936638;29;20389;-76
2021/11/08 04:06:35;;;;;;;40.90;10.65;;;;;;;;;;4919792;29;20052;-79
2021/11/08 04:09:03;;;;;;;34.47;10.38;;;;;;;;;;4936954;29;20051;-75
2021/11/08 04:11:31;;;;;;;24.30;9.65;;;;;;;;;;4919822;29;20086;-77
2021/11/08 04:14:01;;;;;;;31.10;10.23;;;;;;;;;;4937195;29;20067;-76
2021/11/08 04:16:30;;;;;;;25.88;10.07;;;;;;;;;;4919925;29;20040;-80
2021/11/08 04:18:57;;;;;;;22.55;9.85;;;;;;;;;;4904036;29;20142;-74
2021/11/08 04:21:26;;;;;;;26.10;9.52;;;;;;;;;;4919114;29;20058;-76
2021/11/08 04:23:55;;;;;;;32.70;11.32;;;;;;;;;;4936752;28;20055;-79
2021/11/08 04:26:26;;;;;;;32.35;11.25;;;;;;;;;;4954684;28;20437;-75
2021/11/08 04:29:02;;;;;;;36.70;11.17;;;;;;;;;;4938410;29;20094;-76
2021/11/08 04:31:43;;;;;;;32.90;10.65;;;;;;;;;;4935436;29;20066;-75
2021/11/08 04:34:24;;;;;;;27.67;10.60;;;;;;;;;;4955349;29;20066;-75
2021/11/08 04:45:38;;;;;;;35.55;10.25;;;;;;;;;;4955677;29;20051;-75
2021/11/08 04:55:40;;;;;;;28.48;11.13;;;;;;;;;;4938192;29;20043;-75
2021/11/08 05:23:19;;;;;;;28.33;10.70;;;;;;;;;;4954999;29;20118;-76
2021/11/08 05:29:53;;;;;;;29.95;10.15;;;;;;;;;;4954824;29;20047;-75
2021/11/08 05:31:31;;;;;;;27.00;10.73;;;;;;;;;;4954420;29;20075;-74
2021/11/08 05:34:02;;;;;;;29.95;12.68;;;;;;;;;;4936997;29;20051;-75
2021/11/08 05:36:29;;;;;;;31.17;10.82;;;;;;;;;;4921708;29;20424;-76
2021/11/08 05:38:57;;;;;;;33.95;10.90;;;;;;;;;;4954575;29;20106;-75
2021/11/08 05:41:25;;;;;;;26.05;9.30;;;;;;;;;;4937804;29;20039;-76
2021/11/08 05:43:54;;;;;;;34.55;11.70;;;;;;;;;;4937636;29;20486;-79
2021/11/08 05:46:21;;;;;;;29.50;10.90;;;;;;;;;;4954351;29;20077;-79
2021/11/08 05:48:51;;;;;;;28.00;10.43;;;;;;;;;;4937283;29;20115;-79
2021/11/08 05:51:18;;;;;;;30.40;11.45;;;;;;;;;;4937298;29;20536;-76
2021/11/08 05:53:47;;;;;;;33.65;11.95;;;;;;;;;;4954606;29;20043;-75
2021/11/08 06:51:19;;;;;;;29.73;11.82;;;;;;;;;;4976403;28;20049;-74
2021/11/08 06:53:48;;;;;;;31.15;12.57;;;;;;;;;;4974559;28;20125;-75
2021/11/08 06:56:23;;;;;;;25.73;10.43;;;;;;;;;;4974940;28;20031;-76
2021/11/08 06:58:52;;;;;;;37.95;14.05;;;;;;;;;;4958490;28;20467;-76
2021/11/08 07:01:22;;;;;;;29.50;10.98;;;;;;;;;;4958774;28;20047;-74
2021/11/08 07:03:59;;;;;;;31.70;10.98;;;;;;;;;;4975620;28;20039;-75
2021/11/08 07:06:27;;;;;;;34.55;11.50;;;;;;;;;;4942659;28;20136;-75
2021/11/08 07:08:56;;;;;;;30.80;11.48;;;;;;;;;;4958295;28;20074;-75
2021/11/08 07:11:24;;;;;;;30.13;10.88;;;;;;;;;;4958577;28;20058;-73
2021/11/08 07:13:52;;;;;;;32.10;11.52;;;;;;;;;;4975269;28;20046;-74
2021/11/08 07:16:19;;;;;;;34.30;12.07;;;;;;;;;;4975537;28;20041;-74
2021/11/08 07:18:46;;;;;;;34.38;11.27;;;;;;;;;;4975667;28;20043;-73
2021/11/08 07:21:16;;;;;;;23.15;10.02;;;;;;;;;;4975419;28;20170;-73
2021/11/08 07:23:44;;;;;;;27.55;11.43;;;;;;;;;;4958084;28;20054;-76
2021/11/08 07:26:12;;;;;;;28.25;11.15;;;;;;;;;;4958170;28;20534;-73
2021/11/08 07:28:41;;;;;;;32.67;10.95;;;;;;;;;;4958283;28;20419;-77
2021/11/08 07:31:09;;;;;;;31.35;11.32;;;;;;;;;;4975719;28;20130;-75
2021/11/08 07:33:39;;;;;;;31.63;10.60;;;;;;;;;;4958076;28;20051;-77
2021/11/08 07:36:07;;;;;;;24.77;7.95;;;;;;;;;;4957812;28;20115;-77
2021/11/08 07:38:35;;;;;;;27.77;8.90;;;;;;;;;;4974697;28;20141;-75
2021/11/08 07:41:03;;;;;;;25.65;9.50;;;;;;;;;;4975041;28;20488;-73
2021/11/08 07:43:36;;;;;;;28.38;9.30;;;;;;;;;;4974886;28;20054;-76
2021/11/08 07:46:04;;;;;;;28.75;8.85;;;;;;;;;;4974997;28;20057;-73
2021/11/08 07:48:32;;;;;;;24.92;9.23;;;;;;;;;;4957497;28;20385;-73
2021/11/08 07:50:59;;;;;;;20.48;8.40;;;;;;;;;;4974826;28;20063;-77
2021/11/08 07:53:27;;;;;;;24.42;8.95;;;;;;;;;;4975038;28;20038;-74
2021/11/08 07:55:58;;;;;;;21.80;8.05;;;;;;;;;;4975061;28;20047;-75
2021/11/08 07:58:25;;;;;;;38.60;8.98;;;;;;;;;;4974636;28;20408;-77
2021/11/08 08:00:55;;;;;;;24.73;8.38;;;;;;;;;;4974647;28;20364;-73
2021/11/08 08:03:25;;;;;;;30.42;9.98;;;;;;;;;;4974914;28;20055;-74
2021/11/08 08:05:53;;;;;;;24.33;9.27;;;;;;;;;;4957342;28;20428;-77
2021/11/08 08:08:21;;;;;;;28.23;8.88;;;;;;;;;;4974394;28;20050;-77
2021/11/08 08:10:51;;;;;;;25.88;8.75;;;;;;;;;;4941453;28;20516;-77
2021/11/08 08:13:20;;;;;;;23.67;8.27;;;;;;;;;;4974728;28;20041;-75
2021/11/08 08:15:49;;;;;;;25.42;7.57;;;;;;;;;;4956453;28;20049;-75
2021/11/08 08:18:17;;;;;;;21.45;8.90;;;;;;;;;;4941025;28;20042;-74
2021/11/08 08:20:45;;;;;;;20.25;8.07;;;;;;;;;;4991401;23;20063;-74
2021/11/08 08:23:12;;;;;;;23.08;8.20;;;;;;;;;;4955235;29;20046;-73
2021/11/08 08:25:40;;;;;;;21.83;8.20;;;;;;;;;;4955278;29;20151;-71
2021/11/08 08:28:07;;;;;;;24.55;8.32;;;;;;;;;;4937447;29;20046;-71
2021/11/08 08:30:35;;;;;;;21.83;7.13;;;;;;;;;;4954923;29;20043;-74
2021/11/08 08:33:03;;;;;;;19.48;6.95;;;;;;;;;;4955982;28;20117;-75
2021/11/08 08:35:36;;;;;;;20.90;6.95;;;;;;;;;;4974379;28;20492;-75
2021/11/08 08:38:04;;;;;;;23.67;7.63;;;;;;;;;;4974250;28;20082;-75
2021/11/08 08:40:32;;;;;;;23.05;8.70;;;;;;;;;;4956694;28;20496;-71
2021/11/08 08:42:59;;;;;;;31.95;9.23;;;;;;;;;;4956651;28;20126;-72
2021/11/08 08:45:27;;;;;;;20.73;8.88;;;;;;;;;;4956871;28;20038;-73
2021/11/08 08:47:54;;;;;;;17.88;8.05;;;;;;;;;;4974452;28;20393;-75
2021/11/08 08:50:23;;;;;;;26.58;8.82;;;;;;;;;;4974128;28;20046;-74
2021/11/08 08:52:51;;;;;;;22.50;7.60;;;;;;;;;;4974272;28;20043;-71
2021/11/08 08:55:19;;;;;;;22.98;7.25;;;;;;;;;;4973877;28;20034;-75
2021/11/08 08:57:49;;;;;;;20.70;7.03;;;;;;;;;;4973580;28;20034;-72
2021/11/08 09:00:18;;;;;;;22.27;7.18;;;;;;;;;;4973778;28;20039;-75
2021/11/08 09:02:52;;;;;;;23.50;7.07;;;;;;;;;;4974102;28;20051;-72
2021/11/08 09:05:21;;;;;;;24.27;7.57;;;;;;;;;;4956702;28;20049;-75
2021/11/08 09:07:51;;;;;;;28.73;6.43;;;;;;;;;;4973872;28;20043;-71
2021/11/08 09:10:19;;;;;;;26.50;7.20;;;;;;;;;;4973476;28;20042;-74
2021/11/08 09:12:47;;;;;;;20.95;7.22;;;;;;;;;;4973528;28;20061;-72
2021/11/08 09:15:14;;;;;;;23.42;7.28;;;;;;;;;;4956687;28;20049;-71
2021/11/08 09:17:42;;;;;;;20.60;7.10;;;;;;;;;;4973681;28;20134;-75
2021/11/08 09:20:10;;;;;;;20.80;6.40;;;;;;;;;;4956096;28;20078;-70
2021/11/08 09:22:42;;;;;;;23.20;7.47;;;;;;;;;;4973824;28;20053;-75
2021/11/08 09:25:11;;;;;;;17.25;7.07;;;;;;;;;;4973326;28;20070;-75
2021/11/08 09:27:39;;;;;;;20.60;6.90;;;;;;;;;;4973727;28;20085;-74
2021/11/08 09:30:08;;;;;;;16.27;6.78;;;;;;;;;;4973752;28;20049;-71
2021/11/08 09:32:36;;;;;;;15.77;6.90;;;;;;;;;;4956393;28;20057;-75
2021/11/08 09:35:05;;;;;;;17.40;6.60;;;;;;;;;;4978034;28;20043;-72
2021/11/08 09:37:34;;;;;;;23.73;6.72;;;;;;;;;;4977554;28;20043;-74
2021/11/08 09:40:05;;;;;;;17.15;6.28;;;;;;;;;;4977087;28;20057;-72
2021/11/08 09:42:34;;;;;;;20.23;7.40;;;;;;;;;;4977540;28;20046;-71
2021/11/08 09:45:03;;;;;;;21.42;6.07;;;;;;;;;;4977567;28;20050;-74
2021/11/08 09:47:33;;;;;;;29.15;7.20;;;;;;;;;;4977386;28;20043;-75
2021/11/08 09:50:03;;;;;;;21.25;6.30;;;;;;;;;;4977269;28;20054;-75
2021/11/08 09:52:36;;;;;;;27.63;7.13;;;;;;;;;;4960230;28;20047;-70
2021/11/08 09:55:05;;;;;;;21.45;6.43;;;;;;;;;;4977012;28;20050;-70
2021/11/08 09:57:32;;;;;;;27.88;7.15;;;;;;;;;;4977368;28;20046;-72
2021/11/08 10:00:01;;;;;;;21.92;6.32;;;;;;;;;;4977003;28;20053;-75
2021/11/08 10:02:32;;;;;;;32.78;6.43;;;;;;;;;;4977471;28;20047;-72
2021/11/08 10:05:00;;;;;;;22.98;7.28;;;;;;;;;;4944467;28;20050;-72
2021/11/08 10:07:30;;;;;;;23.35;6.55;;;;;;;;;;4976644;28;20042;-75
2021/11/08 10:09:57;;;;;;;20.52;5.53;;;;;;;;;;4959651;28;20047;-74
2021/11/08 10:12:25;;;;;;;22.20;6.13;;;;;;;;;;4977056;28;20046;-71
2021/11/08 10:14:53;;;;;;;24.83;6.63;;;;;;;;;;4976828;28;20407;-72
2021/11/08 10:17:22;;;;;;;22.95;5.90;;;;;;;;;;4977254;28;20403;-75
2021/11/08 10:19:50;;;;;;;21.10;5.80;;;;;;;;;;4976951;28;20057;-75
2021/11/08 10:22:19;;;;;;;23.15;5.65;;;;;;;;;;4976754;28;20110;-71
2021/11/08 10:24:49;;;;;;;23.67;5.53;;;;;;;;;;4976468;28;20039;-74
2021/11/08 10:27:19;;;;;;;18.05;5.47;;;;;;;;;;4976741;28;20131;-75
2021/11/08 10:29:47;;;;;;;20.27;6.80;;;;;;;;;;4975829;28;20476;-75
2021/11/08 10:32:16;;;;;;;47.53;25.40;;;;;;;;;;4976065;28;20058;-75
2021/11/08 10:35:02;;;;;;;80.28;41.35;;;;;;;;;;4976500;28;20042;-71
2021/11/08 10:37:31;;;;;;;37.65;21.58;;;;;;;;;;4976167;28;20046;-75
2021/11/08 10:39:59;;;;;;;29.33;6.95;;;;;;;;;;4976189;28;20038;-71
2021/11/08 10:42:28;;;;;;;21.58;6.45;;;;;;;;;;4959259;28;20051;-75
2021/11/08 10:44:57;;;;;;;25.30;7.10;;;;;;;;;;4975982;28;20427;-74
2021/11/08 10:47:28;;;;;;;56.35;32.20;;;;;;;;;;4976275;28;20051;-75
2021/11/08 10:49:59;;;;;;;56.33;29.52;;;;;;;;;;4976410;28;20050;-71
2021/11/08 10:52:33;;;;;;;20.75;6.05;;;;;;;;;;4976096;28;20385;-76
2021/11/08 10:55:02;;;;;;;30.10;6.00;;;;;;;;;;4976278;28;20461;-73
2021/11/08 10:57:30;;;;;;;25.45;6.47;;;;;;;;;;4976323;28;20043;-72
2021/11/08 11:00:00;;;;;;;26.00;7.38;;;;;;;;;;4959106;28;20053;-75
2021/11/08 11:02:31;;;;;;;20.58;6.68;;;;;;;;;;4976309;28;20428;-74
2021/11/08 11:05:03;;;;;;;33.92;7.40;;;;;;;;;;4976149;28;20043;-75
2021/11/08 11:07:35;;;;;;;25.42;8.02;;;;;;;;;;4975380;28;20105;-72
2021/11/08 11:10:10;;;;;;;26.38;7.43;;;;;;;;;;4975877;28;20047;-71
2021/11/08 11:12:44;;;;;;;26.90;7.00;;;;;;;;;;4975689;28;20130;-74
2021/11/08 11:15:16;;;;;;;26.40;6.50;;;;;;;;;;4958239;28;20133;-71
2021/11/08 11:17:45;;;;;;;27.77;6.53;;;;;;;;;;4975620;28;20117;-71
2021/11/08 11:20:14;;;;;;;23.38;6.78;;;;;;;;;;4975603;28;20058;-72
2021/11/08 11:22:55;;;;;;;26.15;6.70;;;;;;;;;;4975843;28;20498;-72
2021/11/08 11:25:22;;;;;;;24.83;7.25;;;;;;;;;;4958959;28;20051;-70
2021/11/08 11:27:51;;;;;;;24.25;6.97;;;;;;;;;;4975692;28;20042;-75
2021/11/08 11:30:24;;;;;;;24.52;7.53;;;;;;;;;;4958577;28;20055;-75
2021/11/08 11:33:08;;;;;;;25.67;7.20;;;;;;;;;;4975585;28;20388;-72
2021/11/08 11:35:48;;;;;;;24.17;6.80;;;;;;;;;;4975153;28;20070;-72
2021/11/08 11:38:28;;;;;;;27.10;6.60;;;;;;;;;;4975430;28;20134;-71
2021/11/08 11:40:58;;;;;;;35.75;8.82;;;;;;;;;;4975255;28;20534;-71
2021/11/08 11:43:29;;;;;;;22.02;7.30;;;;;;;;;;4975474;28;20130;-75
2021/11/08 11:45:56;;;;;;;26.15;6.50;;;;;;;;;;4975463;28;20082;-71
2021/11/08 11:48:26;;;;;;;31.15;7.28;;;;;;;;;;4975007;28;20047;-75
2021/11/08 11:51:28;;;;;;;29.85;7.10;;;;;;;;;;4959926;28;20390;-75
2021/11/08 11:53:57;;;;;;;32.88;7.80;;;;;;;;;;4975136;28;20412;-72
2021/11/08 11:56:25;;;;;;;19.90;7.38;;;;;;;;;;4957048;28;20109;-75
2021/11/08 11:58:54;;;;;;;24.40;7.32;;;;;;;;;;4974832;28;20046;-71
2021/11/08 12:01:26;;;;;;;20.38;7.10;;;;;;;;;;4974974;28;20416;-73
2021/11/08 12:03:56;;;;;;;22.92;7.53;;;;;;;;;;4974664;28;20042;-75
2021/11/08 12:06:26;;;;;;;26.08;6.95;;;;;;;;;;4974468;28;20057;-72
2021/11/08 12:08:58;;;;;;;29.67;8.55;;;;;;;;;;4974470;28;20054;-71
2021/11/08 12:11:52;;;;;;;28.10;8.90;;;;;;;;;;4975058;28;20057;-73
2021/11/08 12:14:22;;;;;;;31.15;8.85;;;;;;;;;;4971502;28;20149;-73
2021/11/08 12:16:55;;;;;;;25.30;8.55;;;;;;;;;;4974357;28;20058;-75
2021/11/08 12:19:30;;;;;;;27.75;8.25;;;;;;;;;;4974197;28;20051;-72
2021/11/08 12:21:58;;;;;;;;;;;;;;;;;;4957533;28;20043;-75
2021/11/08 12:24:31;;;;;;;25.90;8.40;;;;;;;;;;4974278;28;19926;-73
2021/11/08 12:27:09;;;;;;;28.55;8.35;;;;;;;;;;4974304;28;20050;-71
2021/11/08 12:29:47;;;;;;;30.50;8.68;;;;;;;;;;4974044;28;20066;-70
2021/11/08 12:32:15;;;;;;;28.50;9.38;;;;;;;;;;4974311;28;20034;-71
2021/11/08 12:34:46;;;;;;;29.40;8.88;;;;;;;;;;4974134;28;20050;-75
2021/11/08 12:37:14;;;;;;;26.02;8.95;;;;;;;;;;4974253;28;20074;-75
2021/11/08 12:39:42;;;;;;;28.55;8.88;;;;;;;;;;4974667;28;20042;-72
2021/11/08 12:42:12;;;;;;;30.10;8.45;;;;;;;;;;4974169;28;20480;-70
2021/11/08 12:44:41;;;;;;;31.98;8.55;;;;;;;;;;4974471;28;20043;-72
2021/11/08 12:47:11;;;;;;;25.70;9.32;;;;;;;;;;4974227;28;20047;-71
2021/11/08 12:49:43;;;;;;;28.95;9.02;;;;;;;;;;4974425;28;20130;-75
2021/11/08 12:52:12;;;;;;;21.02;7.80;;;;;;;;;;4974695;28;20045;-70
2021/11/08 12:54:51;;;;;;;30.30;9.00;;;;;;;;;;4973840;28;20070;-71
2021/11/08 12:57:24;;;;;;;31.83;8.80;;;;;;;;;;4974395;28;20038;-71
2021/11/08 12:59:56;;;;;;;27.60;9.13;;;;;;;;;;4957183;28;20043;-75
2021/11/08 13:02:29;;;;;;;27.63;8.32;;;;;;;;;;4973511;28;20480;-71
2021/11/08 13:04:58;;;;;;;35.75;8.68;;;;;;;;;;4974233;28;20440;-75
2021/11/08 13:07:30;;;;;;;31.75;7.72;;;;;;;;;;4973696;28;20042;-74
2021/11/08 13:09:58;;;;;;;36.92;9.05;;;;;;;;;;4974221;28;20042;-71
2021/11/08 13:12:32;;;;;;;38.33;9.15;;;;;;;;;;4974297;28;20093;-72
2021/11/08 13:15:00;;;;;;;27.50;8.07;;;;;;;;;;4973298;28;20051;-71
2021/11/08 13:17:29;;;;;;;27.00;8.32;;;;;;;;;;4968950;28;20423;-75
2021/11/08 13:20:07;;;;;;;25.02;8.02;;;;;;;;;;4973562;28;20051;-70
2021/11/08 13:22:52;;;;;;;29.27;8.70;;;;;;;;;;4973972;28;20046;-70
2021/11/08 13:25:25;;;;;;;39.90;8.30;;;;;;;;;;4973967;28;20051;-69
2021/11/08 13:27:57;;;;;;;22.45;8.30;;;;;;;;;;4974070;28;20050;-70
2021/11/08 13:30:33;;;;;;;28.50;7.40;;;;;;;;;;4973514;28;20097;-74
2021/11/08 13:33:01;;;;;;;30.88;7.53;;;;;;;;;;4956664;28;20174;-74
2021/11/08 13:35:30;;;;;;;33.92;7.65;;;;;;;;;;4973743;28;20038;-71
2021/11/08 13:38:04;;;;;;;30.63;9.43;;;;;;;;;;4973718;28;20468;-71
2021/11/08 13:40:32;;;;;;;27.60;7.85;;;;;;;;;;4973726;28;20125;-75
2021/11/08 13:43:08;;;;;;;29.80;8.32;;;;;;;;;;4956544;28;20046;-70
2021/11/08 13:45:49;;;;;;;32.17;8.00;;;;;;;;;;4973544;28;20412;-71
2021/11/08 13:48:21;;;;;;;36.15;8.32;;;;;;;;;;4973642;28;20063;-70
2021/11/08 13:50:48;;;;;;;31.40;8.82;;;;;;;;;;4956964;28;20038;-71
2021/11/08 13:53:17;;;;;;;33.95;8.93;;;;;;;;;;4973853;28;20043;-72
2021/11/08 13:55:44;;;;;;;25.45;7.43;;;;;;;;;;4973579;28;20049;-74
2021/11/08 13:58:17;;;;;;;40.33;7.97;;;;;;;;;;4968041;28;20062;-75
2021/11/08 14:00:45;;;;;;;30.17;7.72;;;;;;;;;;4962293;28;20076;-69
2021/11/08 14:03:15;;;;;;;41.00;8.93;;;;;;;;;;4963735;28;20034;-74
2021/11/08 14:05:47;;;;;;;24.95;8.00;;;;;;;;;;4965006;28;20373;-74
2021/11/08 14:08:19;;;;;;;29.83;7.72;;;;;;;;;;4967887;28;20476;-74
2021/11/08 14:10:57;;;;;;;32.88;8.73;;;;;;;;;;4965153;28;20043;-70
2021/11/08 14:13:33;;;;;;;36.70;9.07;;;;;;;;;;4955963;28;20101;-75
2021/11/08 14:16:05;;;;;;;28.17;8.07;;;;;;;;;;4956017;28;20070;-70
2021/11/08 14:18:33;;;;;;;30.60;9.00;;;;;;;;;;4974015;28;20043;-74
2021/11/08 14:21:18;;;;;;;32.10;8.68;;;;;;;;;;4959888;28;20043;-74
2021/11/08 14:23:46;;;;;;;38.03;9.85;;;;;;;;;;4977187;28;20046;-75
2021/11/08 14:26:17;;;;;;;30.65;8.13;;;;;;;;;;4976910;28;20055;-74
2021/11/08 14:28:46;;;;;;;37.88;8.68;;;;;;;;;;4977373;28;20069;-70
2021/11/08 14:31:21;;;;;;;33.22;8.20;;;;;;;;;;4977029;28;20500;-69
2021/11/08 14:33:53;;;;;;;37.30;8.73;;;;;;;;;;4976149;28;20407;-70
2021/11/08 14:36:23;;;;;;;35.15;10.70;;;;;;;;;;4977036;28;20143;-74
2021/11/08 14:38:56;;;;;;;32.20;8.80;;;;;;;;;;4976669;28;20043;-69
2021/11/08 14:41:32;;;;;;;27.35;8.48;;;;;;;;;;4976024;28;20463;-73
2021/11/08 14:44:09;;;;;;;28.00;8.18;;;;;;;;;;4976378;28;20055;-69
2021/11/08 14:46:45;;;;;;;28.85;8.25;;;;;;;;;;4958814;28;20058;-73
2021/11/08 14:49:25;;;;;;;32.63;7.68;;;;;;;;;;4972921;28;20129;-73
2021/11/08 14:52:04;;;;;;;31.15;8.25;;;;;;;;;;4975511;28;20038;-74
2021/11/08 14:54:35;;;;;;;38.85;8.65;;;;;;;;;;4976295;28;20065;-74
2021/11/08 14:57:05;;;;;;;38.47;9.65;;;;;;;;;;4976134;28;20508;-74
2021/11/08 14:59:35;;;;;;;34.25;9.15;;;;;;;;;;4975800;28;20452;-74
2021/11/08 15:02:11;;;;;;;35.45;8.70;;;;;;;;;;4976007;28;20050;-68
2021/11/08 15:04:49;;;;;;;30.08;8.73;;;;;;;;;;4976348;28;20054;-70
2021/11/08 15:07:29;;;;;;;33.60;8.25;;;;;;;;;;4975824;28;20133;-74
2021/11/08 15:09:58;;;;;;;28.65;8.50;;;;;;;;;;4975792;28;20446;-70
2021/11/08 15:12:33;;;;;;;32.85;8.45;;;;;;;;;;4971769;28;20121;-75
2021/11/08 15:15:21;;;;;;;36.63;8.50;;;;;;;;;;4956688;29;20103;-70
2021/11/08 15:17:52;;;;;;;35.80;8.55;;;;;;;;;;4927923;29;20057;-72
2021/11/08 15:20:25;;;;;;;33.55;8.77;;;;;;;;;;4956499;29;20130;-69
2021/11/08 15:22:54;;;;;;;37.75;8.82;;;;;;;;;;4956591;29;20544;-71
2021/11/08 15:25:22;;;;;;;35.75;10.70;;;;;;;;;;4953394;29;20150;-69
2021/11/08 15:27:59;;;;;;;33.88;9.27;;;;;;;;;;4937191;29;20519;-71
2021/11/08 15:30:30;;;;;;;31.98;9.38;;;;;;;;;;4938174;29;20053;-70
2021/11/08 15:33:10;;;;;;;43.88;9.75;;;;;;;;;;4955694;29;20070;-75
2021/11/08 15:35:39;;;;;;;37.90;9.07;;;;;;;;;;4955605;29;20059;-70
2021/11/08 15:38:09;;;;;;;31.00;8.95;;;;;;;;;;4938743;28;20157;-70
2021/11/08 15:40:38;;;;;;;40.22;8.60;;;;;;;;;;4961914;28;20070;-69
2021/11/08 15:43:07;;;;;;;34.58;8.73;;;;;;;;;;4959891;28;20042;-70
2021/11/08 15:45:39;;;;;;;28.27;9.00;;;;;;;;;;4963945;28;20051;-70
2021/11/08 15:48:07;;;;;;;43.30;9.63;;;;;;;;;;4947226;29;20039;-74
2021/11/08 15:50:35;;;;;;;42.13;9.38;;;;;;;;;;4955369;29;20035;-74
2021/11/08 15:53:04;;;;;;;29.42;8.90;;;;;;;;;;4954777;29;20039;-74
2021/11/08 15:55:32;;;;;;;32.78;9.40;;;;;;;;;;4955319;29;20453;-75
2021/11/08 15:57:59;;;;;;;39.65;10.80;;;;;;;;;;4954867;29;20050;-71
2021/11/08 16:00:27;;;;;;;37.08;10.57;;;;;;;;;;4955126;29;20043;-70
2021/11/08 16:02:55;;;;;;;36.58;8.73;;;;;;;;;;4938122;29;20054;-75
2021/11/08 16:05:23;;;;;;;39.28;10.05;;;;;;;;;;4954987;29;20051;-71
2021/11/08 16:07:52;;;;;;;34.35;10.02;;;;;;;;;;4955154;29;20489;-74
2021/11/08 16:10:23;;;;;;;39.83;9.55;;;;;;;;;;4954790;29;20047;-70
2021/11/08 16:12:51;;;;;;;38.42;9.98;;;;;;;;;;4954871;29;20039;-75
2021/11/08 16:15:20;;;;;;;33.13;9.65;;;;;;;;;;4954477;29;20421;-75
2021/11/08 16:17:51;;;;;;;35.90;9.95;;;;;;;;;;4957667;28;20050;-75
2021/11/08 16:20:22;;;;;;;33.03;9.67;;;;;;;;;;4959986;28;20038;-69
2021/11/08 16:22:51;;;;;;;42.15;9.80;;;;;;;;;;4973771;28;20046;-74
2021/11/08 16:25:20;;;;;;;38.65;9.15;;;;;;;;;;4973739;28;20042;-69
2021/11/08 16:27:48;;;;;;;31.30;10.20;;;;;;;;;;4956365;28;20049;-74
2021/11/08 16:30:17;;;;;;;37.22;10.60;;;;;;;;;;4972846;28;20051;-73
2021/11/08 16:32:58;;;;;;;36.50;9.13;;;;;;;;;;4962467;28;20139;-71
2021/11/08 16:35:26;;;;;;;35.97;10.68;;;;;;;;;;4945304;28;20390;-72
2021/11/08 16:37:56;;;;;;;46.38;11.05;;;;;;;;;;4963881;28;20038;-70